createdAt,value
2023-05-13T00:00:17.589Z,38.32
2023-05-13T00:01:20.378Z,38.31
2023-05-13T00:02:23.011Z,38.32
2023-05-13T00:03:26.524Z,38.29
2023-05-13T00:04:29.708Z,38.25
2023-05-13T00:05:33.421Z,38.27
2023-05-13T00:06:36.338Z,38.25
2023-05-13T00:07:41.023Z,38.27
2023-05-13T00:08:43.960Z,38.24
2023-05-13T00:09:47.054Z,38.24
2023-05-13T00:10:50.067Z,38.24
2023-05-13T00:11:52.942Z,38.24
2023-05-13T00:12:55.862Z,38.21
2023-05-13T00:15:12.047Z,38.19
2023-05-13T00:16:15.632Z,38.21
2023-05-13T00:17:18.183Z,38.23
2023-05-13T00:18:20.724Z,38.26
2023-05-13T00:19:24.084Z,38.27
2023-05-13T00:20:26.791Z,38.30
2023-05-13T00:21:30.183Z,38.36
2023-05-13T00:22:32.682Z,38.41
2023-05-13T00:23:35.344Z,38.41
2023-05-13T00:24:38.478Z,38.44
2023-05-13T00:25:43.860Z,38.47
2023-05-13T00:26:47.156Z,38.48
2023-05-13T00:27:51.576Z,38.54
2023-05-13T00:28:54.543Z,38.53
2023-05-13T00:29:58.944Z,38.53
2023-05-13T00:31:01.922Z,38.50
2023-05-13T00:32:05.774Z,38.49
2023-05-13T00:33:08.704Z,38.53
2023-05-13T00:34:11.978Z,38.49
2023-05-13T00:35:15.038Z,38.47
2023-05-13T00:36:18.213Z,38.43
2023-05-13T00:37:21.706Z,38.38
2023-05-13T00:38:24.612Z,38.38
2023-05-13T00:39:28.224Z,38.40
2023-05-13T00:40:30.937Z,38.40
2023-05-13T00:41:34.416Z,38.38
2023-05-13T00:42:37.225Z,38.38
2023-05-13T00:43:40.702Z,38.37
2023-05-13T00:44:43.559Z,38.37
2023-05-13T00:45:47.719Z,38.31
2023-05-13T00:46:50.526Z,38.29
2023-05-13T00:47:53.491Z,38.26
2023-05-13T00:48:56.814Z,38.26
2023-05-13T00:49:59.509Z,38.22
2023-05-13T00:51:03.233Z,38.19
2023-05-13T00:52:07.287Z,38.19
2023-05-13T00:53:11.183Z,38.17
2023-05-13T00:54:13.826Z,38.19
2023-05-13T00:55:16.916Z,38.19
2023-05-13T00:56:23.394Z,38.17
2023-05-13T00:57:26.263Z,38.15
2023-05-13T00:58:31.713Z,38.13
2023-05-13T00:59:34.296Z,38.12
2023-05-13T01:02:09.318Z,38.09
2023-05-13T01:04:41.298Z,38.07
2023-05-13T01:05:50.614Z,38.03
2023-05-13T01:07:30.735Z,38.05
2023-05-13T01:10:17.425Z,38.04
2023-05-13T01:11:32.817Z,38.04
2023-05-13T01:12:37.173Z,38.03
2023-05-13T01:13:41.746Z,38.01
2023-05-13T01:16:37.349Z,38.01
2023-05-13T01:17:59.153Z,38.04
2023-05-13T01:19:06.122Z,38.00
2023-05-13T01:20:10.057Z,38.00
2023-05-13T01:21:14.862Z,37.98
2023-05-13T01:22:18.920Z,38.00
2023-05-13T01:23:21.928Z,38.04
2023-05-13T01:24:24.654Z,38.12
2023-05-13T01:25:28.659Z,38.13
2023-05-13T01:26:31.679Z,38.16
2023-05-13T01:27:34.660Z,38.19
2023-05-13T01:28:37.662Z,38.17
2023-05-13T01:29:40.721Z,38.22
2023-05-13T01:30:43.592Z,38.18
2023-05-13T01:31:46.986Z,38.18
2023-05-13T01:32:50.316Z,38.16
2023-05-13T01:33:54.090Z,38.15
2023-05-13T01:34:58.142Z,38.16
2023-05-13T01:36:01.954Z,38.16
2023-05-13T01:37:06.217Z,38.15
2023-05-13T01:38:09.613Z,38.12
2023-05-13T01:39:12.905Z,38.14
2023-05-13T01:40:31.747Z,38.12
2023-05-13T01:41:22.833Z,38.10
2023-05-13T01:42:29.112Z,38.08
2023-05-13T01:43:33.831Z,38.08
2023-05-13T01:44:37.734Z,38.09
2023-05-13T01:45:40.908Z,38.08
2023-05-13T01:46:44.228Z,38.05
2023-05-13T01:47:47.579Z,38.11
2023-05-13T01:48:50.425Z,38.10
2023-05-13T01:49:53.850Z,38.01
2023-05-13T01:50:57.630Z,38.00
2023-05-13T01:52:00.799Z,37.97
2023-05-13T01:53:04.252Z,37.93
2023-05-13T01:54:07.922Z,37.93
2023-05-13T01:55:12.673Z,37.92
2023-05-13T01:56:16.281Z,37.87
2023-05-13T01:57:19.652Z,37.90
2023-05-13T01:58:24.289Z,37.90
2023-05-13T01:59:27.339Z,37.86
2023-05-13T02:00:30.210Z,37.85
2023-05-13T02:01:33.428Z,37.85
2023-05-13T02:02:36.408Z,37.85
2023-05-13T02:03:39.579Z,37.86
2023-05-13T02:04:42.401Z,37.85
2023-05-13T02:05:47.017Z,37.83
2023-05-13T02:06:50.028Z,37.82
2023-05-13T02:07:54.747Z,37.82
2023-05-13T02:08:59.611Z,37.84
2023-05-13T02:10:04.016Z,37.86
2023-05-13T02:11:07.897Z,37.86
2023-05-13T02:12:10.721Z,37.91
2023-05-13T02:13:14.592Z,37.91
2023-05-13T02:14:17.402Z,37.92
2023-05-13T02:15:20.423Z,37.91
2023-05-13T02:16:23.474Z,37.92
2023-05-13T02:17:26.485Z,37.92
2023-05-13T02:18:29.344Z,37.92
2023-05-13T02:19:32.682Z,37.93
2023-05-13T02:20:35.620Z,37.96
2023-05-13T02:21:38.428Z,37.99
2023-05-13T02:22:44.537Z,37.99
2023-05-13T02:23:48.164Z,37.99
2023-05-13T02:24:50.987Z,38.00
2023-05-13T02:25:55.087Z,38.04
2023-05-13T02:26:57.796Z,38.03
2023-05-13T02:28:00.984Z,38.04
2023-05-13T02:29:03.816Z,38.01
2023-05-13T02:30:09.622Z,38.06
2023-05-13T02:31:13.708Z,38.07
2023-05-13T02:32:17.735Z,38.07
2023-05-13T02:33:20.854Z,38.09
2023-05-13T02:34:24.113Z,38.06
2023-05-13T02:35:29.811Z,38.06
2023-05-13T02:36:36.879Z,38.09
2023-05-13T02:37:40.237Z,38.09
2023-05-13T02:38:45.554Z,38.07
2023-05-13T02:39:49.316Z,38.07
2023-05-13T02:40:54.638Z,38.06
2023-05-13T02:41:59.313Z,38.05
2023-05-13T02:43:03.522Z,38.06
2023-05-13T02:44:08.015Z,38.04
2023-05-13T02:45:12.712Z,38.01
2023-05-13T02:46:16.418Z,38.05
2023-05-13T02:47:20.517Z,38.06
2023-05-13T02:48:23.296Z,38.04
2023-05-13T02:49:27.182Z,38.04
2023-05-13T02:50:30.603Z,38.06
2023-05-13T02:51:34.334Z,38.05
2023-05-13T02:52:39.300Z,38.06
2023-05-13T02:53:42.271Z,38.08
2023-05-13T02:54:46.072Z,38.05
2023-05-13T02:55:49.338Z,38.05
2023-05-13T02:56:53.436Z,38.05
2023-05-13T02:58:09.818Z,38.05
2023-05-13T02:59:12.509Z,38.03
2023-05-13T03:00:18.532Z,38.03
2023-05-13T03:01:21.274Z,38.03
2023-05-13T03:02:24.790Z,38.03
2023-05-13T03:03:29.336Z,38.09
2023-05-13T03:04:32.213Z,38.04
2023-05-13T03:05:34.748Z,38.05
2023-05-13T03:06:38.018Z,38.06
2023-05-13T03:07:41.711Z,38.11
2023-05-13T03:08:44.439Z,38.10
2023-05-13T03:09:47.882Z,38.11
2023-05-13T03:10:51.163Z,38.11
2023-05-13T03:11:54.502Z,38.12
2023-05-13T03:12:57.201Z,38.11
2023-05-13T03:13:59.617Z,38.13
2023-05-13T03:15:03.060Z,38.13
2023-05-13T03:16:05.943Z,38.15
2023-05-13T03:17:08.900Z,38.15
2023-05-13T03:18:11.739Z,38.16
2023-05-13T03:19:14.947Z,38.16
2023-05-13T03:20:18.297Z,38.15
2023-05-13T03:21:21.453Z,38.15
2023-05-13T03:22:24.223Z,38.17
2023-05-13T03:23:28.029Z,38.16
2023-05-13T03:24:32.243Z,38.16
2023-05-13T03:25:36.132Z,38.15
2023-05-13T03:26:39.073Z,38.12
2023-05-13T03:27:42.312Z,38.12
2023-05-13T03:28:45.767Z,38.11
2023-05-13T03:29:49.486Z,38.12
2023-05-13T03:30:52.532Z,38.12
2023-05-13T03:31:55.280Z,38.11
2023-05-13T03:32:59.560Z,38.07
2023-05-13T03:34:03.570Z,38.13
2023-05-13T03:35:07.901Z,38.12
2023-05-13T03:36:11.883Z,38.15
2023-05-13T03:37:15.601Z,38.16
2023-05-13T03:39:30.514Z,38.17
2023-05-13T03:41:45.720Z,38.17
2023-05-13T03:42:50.408Z,38.16
2023-05-13T03:43:55.414Z,38.20
2023-05-13T03:44:58.126Z,38.16
2023-05-13T03:46:00.849Z,38.14
2023-05-13T03:47:04.459Z,38.16
2023-05-13T03:48:07.518Z,38.15
2023-05-13T03:49:10.181Z,38.15
2023-05-13T03:50:13.684Z,38.14
2023-05-13T03:51:18.735Z,38.14
2023-05-13T03:52:22.254Z,38.14
2023-05-13T03:53:26.638Z,38.16
2023-05-13T03:54:29.818Z,38.27
2023-05-13T03:55:33.656Z,38.35
2023-05-13T03:56:37.059Z,38.51
2023-05-13T03:57:40.595Z,38.52
2023-05-13T03:58:43.685Z,38.62
2023-05-13T03:59:46.475Z,38.68
2023-05-13T04:00:49.206Z,38.69
2023-05-13T04:01:52.985Z,38.74
2023-05-13T04:02:57.075Z,38.73
2023-05-13T04:03:59.982Z,38.75
2023-05-13T04:05:05.207Z,38.77
2023-05-13T04:06:08.118Z,38.78
2023-05-13T04:07:11.407Z,38.78
2023-05-13T04:08:15.344Z,38.83
2023-05-13T04:09:20.052Z,38.83
2023-05-13T04:10:22.995Z,38.91
2023-05-13T04:11:26.823Z,38.92
2023-05-13T04:12:33.130Z,38.96
2023-05-13T04:13:37.199Z,38.98
2023-05-13T04:14:40.201Z,38.97
2023-05-13T04:15:42.980Z,39.01
2023-05-13T04:16:46.762Z,39.09
2023-05-13T04:17:50.202Z,39.10
2023-05-13T04:18:52.905Z,39.15
2023-05-13T04:19:56.689Z,39.21
2023-05-13T04:21:06.747Z,39.23
2023-05-13T04:22:09.769Z,39.25
2023-05-13T04:23:13.926Z,39.24
2023-05-13T04:25:31.213Z,39.29
2023-05-13T04:26:34.832Z,39.26
2023-05-13T04:27:37.800Z,39.25
2023-05-13T04:28:42.276Z,39.21
2023-05-13T04:29:45.686Z,39.25
2023-05-13T04:30:49.196Z,39.22
2023-05-13T04:31:52.730Z,39.19
2023-05-13T04:32:56.038Z,39.20
2023-05-13T04:33:58.987Z,39.20
2023-05-13T04:35:02.812Z,39.15
2023-05-13T04:36:07.239Z,39.18
2023-05-13T04:37:10.838Z,39.21
2023-05-13T04:38:13.768Z,39.21
2023-05-13T04:39:16.453Z,39.23
2023-05-13T04:40:20.575Z,39.26
2023-05-13T04:41:24.332Z,39.30
2023-05-13T04:42:28.022Z,39.30
2023-05-13T04:43:31.478Z,39.29
2023-05-13T04:44:36.446Z,39.28
2023-05-13T04:45:40.079Z,39.25
2023-05-13T04:46:45.709Z,39.25
2023-05-13T04:47:49.885Z,39.19
2023-05-13T04:48:53.831Z,39.14
2023-05-13T04:49:57.822Z,39.13
2023-05-13T04:51:01.104Z,39.19
2023-05-13T04:52:06.614Z,39.24
2023-05-13T04:53:10.005Z,39.37
2023-05-13T04:54:13.347Z,39.43
2023-05-13T04:55:16.997Z,39.55
2023-05-13T04:56:20.291Z,39.65
2023-05-13T04:57:23.467Z,39.76
2023-05-13T04:58:29.634Z,39.76
2023-05-13T05:00:45.732Z,40.08
2023-05-13T05:01:49.731Z,40.08
2023-05-13T05:02:52.843Z,40.04
2023-05-13T05:03:56.203Z,40.01
2023-05-13T05:04:58.972Z,39.99
2023-05-13T05:06:01.534Z,39.99
2023-05-13T05:07:06.128Z,39.99
2023-05-13T05:08:09.031Z,39.92
2023-05-13T05:09:12.700Z,39.92
2023-05-13T05:10:16.163Z,39.95
2023-05-13T05:11:21.416Z,39.96
2023-05-13T05:12:25.589Z,40.11
2023-05-13T05:13:29.350Z,40.10
2023-05-13T05:15:44.143Z,40.23
2023-05-13T05:16:48.554Z,40.21
2023-05-13T05:17:51.323Z,40.21
2023-05-13T05:18:54.103Z,40.21
2023-05-13T05:19:58.490Z,40.22
2023-05-13T05:21:02.606Z,40.21
2023-05-13T05:22:05.590Z,40.19
2023-05-13T05:23:10.146Z,40.26
2023-05-13T05:24:12.776Z,40.28
2023-05-13T05:25:16.464Z,40.33
2023-05-13T05:26:19.424Z,40.36
2023-05-13T05:27:24.008Z,40.37
2023-05-13T05:28:27.028Z,40.45
2023-05-13T05:29:29.755Z,40.45
2023-05-13T05:30:34.337Z,40.43
2023-05-13T05:31:39.492Z,40.44
2023-05-13T05:32:42.360Z,40.41
2023-05-13T05:33:45.109Z,40.40
2023-05-13T05:34:47.917Z,40.41
2023-05-13T05:35:50.982Z,40.37
2023-05-13T05:36:55.670Z,40.36
2023-05-13T05:37:59.885Z,40.35
2023-05-13T05:39:02.907Z,40.42
2023-05-13T05:40:10.623Z,40.40
2023-05-13T05:41:15.256Z,40.43
2023-05-13T05:42:19.099Z,40.40
2023-05-13T05:43:21.848Z,40.39
2023-05-13T05:44:26.422Z,40.37
2023-05-13T05:45:30.037Z,40.40
2023-05-13T05:46:33.387Z,40.38
2023-05-13T05:47:36.852Z,40.43
2023-05-13T05:48:41.301Z,40.42
2023-05-13T05:49:45.580Z,40.44
2023-05-13T05:50:48.779Z,40.44
2023-05-13T05:51:53.924Z,40.43
2023-05-13T05:52:58.627Z,40.41
2023-05-13T05:54:03.388Z,40.42
2023-05-13T05:55:08.525Z,40.39
2023-05-13T05:56:13.934Z,40.40
2023-05-13T05:57:18.170Z,40.43
2023-05-13T05:58:22.346Z,40.42
2023-05-13T05:59:28.497Z,40.36
2023-05-13T06:00:36.066Z,40.37
2023-05-13T06:01:39.438Z,40.39
2023-05-13T06:02:43.258Z,40.39
2023-05-13T06:03:47.372Z,40.39
2023-05-13T06:04:51.528Z,40.38
2023-05-13T06:05:55.757Z,40.37
2023-05-13T06:06:58.664Z,40.38
2023-05-13T06:08:01.721Z,40.37
2023-05-13T06:09:06.562Z,40.38
2023-05-13T06:10:11.179Z,40.40
2023-05-13T06:11:15.493Z,40.38
2023-05-13T06:12:18.735Z,40.36
2023-05-13T06:13:21.334Z,40.37
2023-05-13T06:14:25.314Z,40.38
2023-05-13T06:15:30.284Z,40.40
2023-05-13T06:16:34.332Z,40.43
2023-05-13T06:17:37.698Z,40.49
2023-05-13T06:18:40.887Z,40.52
2023-05-13T06:19:44.592Z,40.56
2023-05-13T06:20:47.497Z,40.68
2023-05-13T06:21:51.498Z,40.91
2023-05-13T06:22:55.414Z,41.13
2023-05-13T06:24:01.896Z,41.19
2023-05-13T06:25:05.384Z,41.23
2023-05-13T06:26:11.149Z,41.25
2023-05-13T06:27:14.652Z,41.27
2023-05-13T06:28:18.652Z,41.30
2023-05-13T06:29:22.370Z,41.36
2023-05-13T06:30:25.384Z,41.33
2023-05-13T06:31:30.115Z,41.36
2023-05-13T06:32:32.968Z,41.37
2023-05-13T06:33:35.857Z,41.36
2023-05-13T06:34:39.809Z,41.41
2023-05-13T06:35:44.586Z,41.52
2023-05-13T06:36:48.301Z,41.49
2023-05-13T06:37:51.860Z,41.58
2023-05-13T06:38:55.177Z,41.61
2023-05-13T06:39:59.883Z,41.64
2023-05-13T06:42:14.546Z,41.73
2023-05-13T06:43:21.527Z,41.65
2023-05-13T06:44:26.033Z,41.65
2023-05-13T06:45:30.782Z,41.66
2023-05-13T06:46:34.091Z,41.68
2023-05-13T06:47:37.190Z,41.64
2023-05-13T06:48:40.850Z,41.68
2023-05-13T06:49:44.188Z,41.62
2023-05-13T06:50:49.171Z,41.69
2023-05-13T06:51:51.867Z,41.65
2023-05-13T06:52:54.705Z,41.63
2023-05-13T06:53:58.814Z,41.66
2023-05-13T06:55:02.210Z,41.67
2023-05-13T06:56:05.966Z,41.70
2023-05-13T06:57:09.778Z,41.69
2023-05-13T06:58:12.451Z,41.65
2023-05-13T06:59:16.332Z,41.68
2023-05-13T07:00:20.972Z,41.67
2023-05-13T07:01:24.140Z,41.68
2023-05-13T07:02:27.872Z,41.70
2023-05-13T07:03:31.000Z,41.70
2023-05-13T07:04:34.128Z,41.69
2023-05-13T07:05:37.731Z,41.66
2023-05-13T07:06:40.701Z,41.64
2023-05-13T07:07:43.636Z,41.63
2023-05-13T07:08:46.391Z,41.65
2023-05-13T07:09:50.061Z,41.63
2023-05-13T07:10:52.788Z,41.64
2023-05-13T07:11:55.813Z,41.64
2023-05-13T07:12:58.320Z,41.66
2023-05-13T07:14:00.874Z,41.65
2023-05-13T07:15:04.233Z,41.66
2023-05-13T07:16:07.856Z,41.66
2023-05-13T07:17:11.118Z,41.63
2023-05-13T07:18:14.240Z,41.63
2023-05-13T07:19:18.540Z,41.60
2023-05-13T07:20:22.977Z,41.68
2023-05-13T07:21:26.186Z,41.74
2023-05-13T07:22:28.969Z,41.92
2023-05-13T07:23:33.080Z,41.95
2023-05-13T07:24:35.549Z,41.96
2023-05-13T07:25:40.013Z,41.94
2023-05-13T07:26:42.786Z,42.00
2023-05-13T07:27:47.327Z,41.96
2023-05-13T07:28:51.165Z,41.99
2023-05-13T07:29:54.249Z,41.93
2023-05-13T07:30:58.292Z,41.89
2023-05-13T07:32:05.189Z,41.91
2023-05-13T07:33:09.205Z,41.87
2023-05-13T07:34:12.915Z,41.96
2023-05-13T07:35:17.502Z,41.96
2023-05-13T07:36:21.706Z,42.01
2023-05-13T07:37:24.677Z,42.05
2023-05-13T07:38:27.388Z,42.04
2023-05-13T07:39:31.031Z,42.00
2023-05-13T07:40:33.821Z,41.98
2023-05-13T07:41:37.802Z,41.96
2023-05-13T07:42:40.642Z,41.97
2023-05-13T07:43:43.714Z,41.90
2023-05-13T07:44:46.512Z,41.91
2023-05-13T07:47:03.820Z,41.99
2023-05-13T07:48:06.885Z,41.91
2023-05-13T07:49:09.700Z,41.87
2023-05-13T07:50:15.018Z,41.80
2023-05-13T07:51:18.388Z,41.64
2023-05-13T07:52:21.294Z,41.55
2023-05-13T07:53:24.392Z,41.42
2023-05-13T07:54:27.931Z,41.32
2023-05-13T07:55:31.844Z,41.20
2023-05-13T07:56:35.329Z,41.10
2023-05-13T07:57:38.900Z,40.91
2023-05-13T07:58:41.712Z,40.90
2023-05-13T07:59:45.089Z,40.53
2023-05-13T08:00:48.899Z,40.64
2023-05-13T08:01:52.258Z,40.44
2023-05-13T08:02:56.594Z,40.60
2023-05-13T08:04:00.828Z,40.60
2023-05-13T08:05:04.871Z,40.01
2023-05-13T08:06:09.918Z,39.94
2023-05-13T08:07:12.712Z,39.88
2023-05-13T08:08:15.788Z,39.77
2023-05-13T08:09:19.975Z,39.72
2023-05-13T08:10:23.470Z,39.66
2023-05-13T08:11:26.364Z,39.61
2023-05-13T08:12:30.050Z,39.62
2023-05-13T08:13:33.802Z,39.54
2023-05-13T08:14:36.402Z,39.31
2023-05-13T08:15:40.331Z,39.16
2023-05-13T08:16:43.767Z,39.23
2023-05-13T08:17:48.669Z,39.35
2023-05-13T08:18:51.708Z,39.51
2023-05-13T08:19:54.421Z,39.62
2023-05-13T08:20:57.341Z,39.63
2023-05-13T08:22:00.693Z,39.63
2023-05-13T08:23:03.993Z,39.69
2023-05-13T08:24:08.176Z,39.63
2023-05-13T08:25:12.172Z,39.58
2023-05-13T08:26:16.321Z,39.56
2023-05-13T08:27:19.285Z,39.49
2023-05-13T08:28:22.457Z,39.43
2023-05-13T08:29:26.012Z,39.44
2023-05-13T08:30:29.114Z,39.40
2023-05-13T08:31:32.034Z,39.36
2023-05-13T08:32:35.544Z,39.28
2023-05-13T08:33:41.518Z,39.20
2023-05-13T08:34:44.212Z,39.18
2023-05-13T08:35:46.937Z,39.09
2023-05-13T08:36:50.228Z,39.07
2023-05-13T08:37:53.086Z,38.96
2023-05-13T08:38:56.124Z,38.79
2023-05-13T08:40:00.829Z,38.77
2023-05-13T08:41:06.085Z,38.62
2023-05-13T08:42:09.008Z,38.44
2023-05-13T08:43:12.210Z,38.58
2023-05-13T08:45:30.903Z,38.33
2023-05-13T08:46:34.862Z,38.17
2023-05-13T08:47:55.043Z,38.37
2023-05-13T08:48:58.500Z,38.38
2023-05-13T08:50:02.948Z,38.27
2023-05-13T08:51:05.941Z,38.21
2023-05-13T08:52:08.816Z,38.17
2023-05-13T08:53:12.550Z,37.89
2023-05-13T08:54:17.142Z,38.08
2023-05-13T08:55:20.397Z,39.46
2023-05-13T08:56:25.122Z,39.57
2023-05-13T08:57:28.076Z,39.80
2023-05-13T08:58:31.387Z,40.17
2023-05-13T08:59:36.000Z,40.83
2023-05-13T09:00:39.176Z,41.37
2023-05-13T09:01:43.958Z,41.67
2023-05-13T09:02:48.049Z,41.75
2023-05-13T09:03:58.149Z,41.90
2023-05-13T09:05:04.927Z,41.89
2023-05-13T09:06:07.962Z,41.84
2023-05-13T09:07:11.409Z,41.94
2023-05-13T09:08:15.035Z,41.71
2023-05-13T09:09:18.080Z,41.69
2023-05-13T09:10:21.000Z,41.61
2023-05-13T09:11:24.893Z,41.58
2023-05-13T09:14:06.084Z,41.43
2023-05-13T09:15:11.497Z,41.30
2023-05-13T09:16:15.747Z,41.23
2023-05-13T09:17:18.559Z,41.18
2023-05-13T09:18:21.150Z,40.85
2023-05-13T09:19:26.155Z,41.29
2023-05-13T09:21:42.976Z,41.58
2023-05-13T09:22:51.176Z,41.70
2023-05-13T09:25:25.867Z,42.05
2023-05-13T09:26:29.764Z,42.10
2023-05-13T09:27:41.637Z,41.80
2023-05-13T09:28:46.235Z,41.98
2023-05-13T09:29:53.161Z,41.82
2023-05-13T09:30:56.397Z,41.51
2023-05-13T09:32:01.276Z,41.46
2023-05-13T09:33:10.646Z,40.98
2023-05-13T09:34:13.394Z,40.82
2023-05-13T09:35:17.380Z,40.48
2023-05-13T09:36:20.156Z,40.37
2023-05-13T09:37:23.976Z,40.39
2023-05-13T09:39:42.504Z,40.12
2023-05-13T09:40:58.311Z,39.55
2023-05-13T09:42:04.311Z,39.84
2023-05-13T09:43:11.064Z,39.54
2023-05-13T09:44:15.373Z,39.68
2023-05-13T09:45:18.137Z,40.37
2023-05-13T09:46:22.254Z,41.30
2023-05-13T09:47:26.093Z,41.57
2023-05-13T09:48:30.559Z,41.11
2023-05-13T09:50:57.699Z,41.13
2023-05-13T09:52:00.942Z,40.34
2023-05-13T09:53:19.240Z,40.26
2023-05-13T09:56:09.426Z,39.82
2023-05-13T09:58:32.329Z,38.06
2023-05-13T09:59:35.523Z,38.93
2023-05-13T10:00:42.388Z,38.67
2023-05-13T10:02:58.532Z,38.61
2023-05-13T10:04:04.954Z,40.49
2023-05-13T10:05:26.529Z,39.13
2023-05-13T10:06:32.458Z,39.65
2023-05-13T10:07:36.966Z,39.31
2023-05-13T10:08:39.653Z,38.84
2023-05-13T10:09:43.497Z,38.54
2023-05-13T10:10:46.557Z,38.96
2023-05-13T10:11:51.299Z,39.15
2023-05-13T10:13:59.053Z,41.15
2023-05-13T10:16:14.128Z,42.70
2023-05-13T10:18:29.888Z,42.57
2023-05-13T10:19:33.643Z,41.95
2023-05-13T10:20:37.068Z,42.42
2023-05-13T10:21:46.027Z,41.57
2023-05-13T10:22:51.522Z,43.37
2023-05-13T10:23:55.900Z,41.96
2023-05-13T10:25:02.614Z,42.01
2023-05-13T10:26:06.424Z,41.62
2023-05-13T10:27:09.407Z,39.54
2023-05-13T10:29:25.642Z,40.24
2023-05-13T10:30:30.718Z,40.38
2023-05-13T10:31:34.979Z,40.22
2023-05-13T10:32:41.202Z,40.21
2023-05-13T10:33:45.653Z,40.39
2023-05-13T10:34:48.727Z,39.81
2023-05-13T10:37:48.902Z,40.86
2023-05-13T10:39:20.497Z,41.19
2023-05-13T10:41:00.349Z,41.26
2023-05-13T10:42:25.722Z,41.36
2023-05-13T10:43:32.232Z,41.38
2023-05-13T10:44:35.145Z,41.27
2023-05-13T10:45:37.986Z,41.30
2023-05-13T10:46:42.624Z,40.57
2023-05-13T10:47:49.640Z,40.49
2023-05-13T10:48:58.339Z,40.27
2023-05-13T10:51:24.389Z,40.19
2023-05-13T10:52:30.719Z,40.26
2023-05-13T10:53:36.752Z,38.67
2023-05-13T10:54:41.805Z,39.29
2023-05-13T10:55:45.933Z,39.37
2023-05-13T10:56:58.674Z,39.47
2023-05-13T10:58:12.743Z,39.01
2023-05-13T10:59:17.770Z,38.74
2023-05-13T11:02:55.154Z,39.56
2023-05-13T11:04:03.770Z,39.14
2023-05-13T11:05:07.269Z,39.23
2023-05-13T11:06:18.834Z,39.35
2023-05-13T11:07:22.535Z,39.91
2023-05-13T11:08:40.486Z,39.72
2023-05-13T11:09:51.008Z,40.29
2023-05-13T11:10:56.752Z,40.55
2023-05-13T11:12:00.245Z,40.24
2023-05-13T11:13:23.393Z,40.15
2023-05-13T11:14:27.861Z,39.93
2023-05-13T11:15:47.982Z,40.14
2023-05-13T11:17:04.357Z,40.39
2023-05-13T11:18:07.108Z,40.38
2023-05-13T11:19:18.837Z,39.50
2023-05-13T11:21:36.114Z,39.27
2023-05-13T11:23:59.818Z,39.49
2023-05-13T11:25:12.104Z,39.63
2023-05-13T11:26:17.815Z,39.87
2023-05-13T11:27:21.762Z,40.22
2023-05-13T11:28:59.556Z,40.50
2023-05-13T11:30:03.308Z,40.78
2023-05-13T11:31:16.430Z,41.16
2023-05-13T11:34:14.363Z,39.99
2023-05-13T11:35:24.096Z,39.83
2023-05-13T11:36:30.745Z,40.60
2023-05-13T11:37:33.440Z,40.76
2023-05-13T11:38:39.025Z,41.02
2023-05-13T11:39:42.286Z,41.21
2023-05-13T11:40:45.645Z,41.41
2023-05-13T11:41:49.939Z,40.56
2023-05-13T11:42:54.652Z,40.95
2023-05-13T11:43:59.118Z,39.92
2023-05-13T11:45:03.955Z,40.30
2023-05-13T11:46:07.517Z,40.65
2023-05-13T11:47:11.541Z,40.31
2023-05-13T11:49:41.870Z,38.82
2023-05-13T11:50:45.364Z,38.56
2023-05-13T11:51:48.984Z,38.52
2023-05-13T11:52:58.262Z,37.82
2023-05-13T11:56:40.787Z,38.45
2023-05-13T11:59:14.037Z,38.70
2023-05-13T12:00:18.884Z,38.68
2023-05-13T12:01:24.756Z,38.55
2023-05-13T12:03:42.985Z,37.23
2023-05-13T12:04:46.188Z,37.27
2023-05-13T12:05:51.842Z,37.38
2023-05-13T12:06:54.526Z,36.73
2023-05-13T12:07:58.232Z,36.82
2023-05-13T12:09:09.150Z,36.82
2023-05-13T12:10:14.573Z,37.14
2023-05-13T12:11:17.484Z,37.31
2023-05-13T12:12:20.469Z,37.10
2023-05-13T12:13:23.334Z,36.87
2023-05-13T12:14:27.887Z,37.14
2023-05-13T12:15:31.221Z,36.66
2023-05-13T12:16:34.185Z,36.64
2023-05-13T12:17:38.499Z,36.75
2023-05-13T12:18:41.311Z,35.94
2023-05-13T12:20:05.901Z,36.03
2023-05-13T12:22:29.530Z,34.90
2023-05-13T12:24:54.698Z,35.15
2023-05-13T12:25:59.150Z,34.82
2023-05-13T12:27:07.217Z,35.70
2023-05-13T12:28:20.099Z,35.65
2023-05-13T12:29:23.296Z,36.03
2023-05-13T12:30:27.200Z,36.13
2023-05-13T12:31:30.689Z,36.22
2023-05-13T12:32:34.547Z,36.31
2023-05-13T12:33:42.774Z,36.36
2023-05-13T12:34:50.566Z,36.39
2023-05-13T12:37:27.289Z,35.96
2023-05-13T12:38:31.774Z,35.69
2023-05-13T12:39:34.190Z,35.77
2023-05-13T12:40:37.007Z,35.64
2023-05-13T12:41:40.927Z,35.50
2023-05-13T12:42:46.766Z,35.35
2023-05-13T12:43:50.524Z,35.26
2023-05-13T12:44:54.105Z,35.21
2023-05-13T12:46:00.225Z,35.04
2023-05-13T12:47:04.256Z,34.87
2023-05-13T12:48:07.078Z,35.15
2023-05-13T12:49:12.482Z,35.10
2023-05-13T12:50:15.688Z,35.39
2023-05-13T12:51:18.896Z,35.73
2023-05-13T12:52:21.799Z,35.87
2023-05-13T12:53:24.980Z,35.86
2023-05-13T12:54:27.653Z,35.84
2023-05-13T12:55:31.162Z,35.81
2023-05-13T12:56:33.985Z,35.84
2023-05-13T12:57:36.850Z,36.01
2023-05-13T12:59:52.971Z,35.76
2023-05-13T13:00:55.636Z,36.00
2023-05-13T13:03:24.882Z,35.36
2023-05-13T13:04:27.804Z,35.63
2023-05-13T13:05:32.311Z,35.88
2023-05-13T13:06:35.203Z,35.71
2023-05-13T13:07:38.118Z,35.39
2023-05-13T13:08:40.976Z,35.57
2023-05-13T13:09:44.857Z,35.26
2023-05-13T13:10:48.124Z,34.86
2023-05-13T13:11:52.428Z,34.92
2023-05-13T13:12:55.252Z,35.02
2023-05-13T13:14:00.033Z,35.19
2023-05-13T13:15:04.904Z,34.85
2023-05-13T13:16:09.828Z,34.97
2023-05-13T13:17:13.774Z,35.23
2023-05-13T13:18:16.293Z,35.59
2023-05-13T13:19:19.268Z,35.36
2023-05-13T13:20:22.983Z,35.69
2023-05-13T13:22:38.691Z,35.85
2023-05-13T13:23:41.613Z,35.30
2023-05-13T13:24:45.388Z,35.34
2023-05-13T13:25:48.230Z,35.13
2023-05-13T13:26:53.138Z,34.85
2023-05-13T13:27:55.810Z,35.31
2023-05-13T13:28:58.575Z,35.54
2023-05-13T13:30:03.082Z,34.60
2023-05-13T13:31:07.854Z,34.48
2023-05-13T13:32:11.108Z,34.58
2023-05-13T13:33:15.290Z,34.46
2023-05-13T13:34:18.170Z,34.18
2023-05-13T13:35:21.201Z,34.05
2023-05-13T13:36:26.071Z,34.01
2023-05-13T13:37:28.536Z,33.88
2023-05-13T13:38:31.791Z,34.05
2023-05-13T13:39:35.010Z,34.17
2023-05-13T13:40:38.352Z,34.35
2023-05-13T13:41:41.371Z,34.33
2023-05-13T13:42:47.002Z,34.39
2023-05-13T13:43:49.728Z,34.40
2023-05-13T13:44:52.420Z,34.34
2023-05-13T13:45:56.136Z,34.25
2023-05-13T13:46:59.173Z,34.28
2023-05-13T13:48:03.030Z,34.27
2023-05-13T13:49:22.769Z,34.36
2023-05-13T13:50:13.184Z,34.28
2023-05-13T13:51:16.271Z,34.08
2023-05-13T13:52:20.474Z,33.79
2023-05-13T13:53:22.999Z,33.92
2023-05-13T13:54:25.540Z,33.84
2023-05-13T13:55:28.702Z,33.86
2023-05-13T13:56:31.397Z,33.86
2023-05-13T13:57:36.069Z,33.86
2023-05-13T13:58:39.881Z,33.85
2023-05-13T13:59:42.574Z,33.99
2023-05-13T14:00:45.914Z,34.19
2023-05-13T14:01:50.683Z,34.39
2023-05-13T14:02:54.372Z,34.25
2023-05-13T14:04:11.456Z,34.32
2023-05-13T14:05:16.298Z,34.56
2023-05-13T14:07:32.519Z,34.94
2023-05-13T14:08:36.469Z,34.95
2023-05-13T14:09:38.973Z,34.80
2023-05-13T14:10:42.337Z,34.71
2023-05-13T14:12:59.216Z,34.29
2023-05-13T14:14:02.125Z,34.35
2023-05-13T14:15:06.313Z,34.38
2023-05-13T14:16:10.102Z,34.25
2023-05-13T14:17:14.510Z,34.17
2023-05-13T14:18:18.732Z,34.20
2023-05-13T14:19:21.775Z,34.22
2023-05-13T14:22:30.073Z,34.12
2023-05-13T14:23:33.068Z,34.17
2023-05-13T14:24:35.645Z,33.89
2023-05-13T14:25:38.409Z,33.92
2023-05-13T14:27:54.884Z,33.66
2023-05-13T14:28:59.915Z,33.53
2023-05-13T14:30:04.544Z,33.76
2023-05-13T14:31:08.394Z,34.04
2023-05-13T14:32:11.001Z,34.08
2023-05-13T14:33:13.847Z,33.89
2023-05-13T14:34:17.088Z,34.02
2023-05-13T14:35:19.670Z,34.17
2023-05-13T14:36:24.963Z,34.06
2023-05-13T14:37:29.338Z,34.16
2023-05-13T14:38:32.131Z,34.20
2023-05-13T14:39:35.897Z,34.20
2023-05-13T14:40:39.978Z,34.02
2023-05-13T14:41:46.262Z,33.94
2023-05-13T14:42:49.299Z,33.92
2023-05-13T14:43:52.071Z,34.07
2023-05-13T14:44:55.243Z,33.96
2023-05-13T14:45:57.925Z,34.21
2023-05-13T14:47:00.609Z,34.29
2023-05-13T14:48:03.640Z,34.47
2023-05-13T14:49:08.012Z,34.66
2023-05-13T14:50:12.308Z,34.73
2023-05-13T14:51:15.005Z,34.86
2023-05-13T14:52:17.604Z,34.97
2023-05-13T14:53:20.631Z,35.03